Time;durP1;ratioP1;P1;durP2;ratioP2;P2;SDS_P1;SDS_P2;PMS_P1;PMS_P2;Temp;Humidity;BMP_temperature;BMP_pressure;BME280_temperature;BME280_humidity;BME280_pressure;Samples;Min_cycle;Max_cycle;Signal;HPM_P1;HPM_P2
2023/05/18 00:01:17;;;;;;;6.10;1.70;;;;;;;-145.18;100.00;46818.63;4955238;29;20047;-67
2023/05/18 00:03:42;;;;;;;7.57;2.20;;;;;;;-145.18;100.00;46789.31;4955634;28;20059;-67
2023/05/18 00:06:08;;;;;;;5.73;2.00;;;;;;;-145.18;100.00;46785.41;4955064;29;20039;-67
2023/05/18 00:08:35;;;;;;;5.77;1.60;;;;;;;-145.18;100.00;46808.84;4955651;28;20062;-67
2023/05/18 00:11:04;;;;;;;8.97;1.90;;;;;;;-145.18;100.00;46804.94;4973624;28;20367;-66
2023/05/18 00:13:30;;;;;;;7.97;1.70;;;;;;;-145.18;100.00;46804.94;4974699;28;20275;-67
2023/05/18 00:15:56;;;;;;;9.77;2.00;;;;;;;-145.18;100.00;46785.41;4974754;28;20269;-67
2023/05/18 00:18:22;;;;;;;7.20;2.17;;;;;;;-145.18;100.00;46791.28;4970046;28;20035;-67
2023/05/18 00:20:57;;;;;;;10.63;2.20;;;;;;;-145.18;100.00;46779.56;4974464;28;20338;-67
2023/05/18 00:23:24;;;;;;;5.63;2.17;;;;;;;-145.18;100.00;46801.03;4956895;28;20685;-67
2023/05/18 00:25:49;;;;;;;6.77;1.63;;;;;;;-145.18;100.00;46773.69;4974763;28;20355;-67
2023/05/18 00:28:15;;;;;;;4.83;1.83;;;;;;;-145.18;100.00;46804.94;4956492;28;20384;-67
2023/05/18 00:30:40;;;;;;;4.80;2.00;;;;;;;-145.18;100.00;46777.59;4956366;28;20108;-67
2023/05/18 00:33:05;;;;;;;7.77;1.70;;;;;;;-145.18;100.00;46750.25;4955014;28;20121;-67
2023/05/18 00:35:31;;;;;;;5.87;2.27;;;;;;;-145.18;100.00;46754.16;4974267;28;20063;-67
2023/05/18 00:37:56;;;;;;;7.37;1.83;;;;;;;-145.18;100.00;46740.47;4972762;28;20043;-67
2023/05/18 00:40:24;;;;;;;6.53;2.17;;;;;;;-145.18;100.00;46748.28;4973974;28;20077;-67
2023/05/18 00:42:50;;;;;;;7.87;2.50;;;;;;;-145.18;100.00;46750.25;4974041;28;20150;-67
2023/05/18 00:45:15;;;;;;;6.47;1.90;;;;;;;-145.18;100.00;46756.09;4974256;28;20351;-67
2023/05/18 00:47:41;;;;;;;6.37;1.87;;;;;;;-145.18;100.00;46750.25;4974089;28;20119;-67
2023/05/18 00:50:06;;;;;;;8.83;1.40;;;;;;;-145.18;100.00;46756.09;4963999;28;20121;-69
2023/05/18 00:52:32;;;;;;;5.23;2.20;;;;;;;-145.18;100.00;46748.28;4973538;28;20034;-69
2023/05/18 00:54:58;;;;;;;3.93;1.37;;;;;;;-145.18;100.00;46754.16;4974219;28;20506;-69
2023/05/18 00:57:24;;;;;;;6.60;2.03;;;;;;;-145.18;100.00;46734.63;4973714;28;20352;-69
2023/05/18 00:59:50;;;;;;;10.73;1.60;;;;;;;-145.18;100.00;46744.38;4973421;28;20085;-67
2023/05/18 01:02:16;;;;;;;10.57;1.83;;;;;;;-145.18;100.00;46719.00;4973157;28;20284;-67
2023/05/18 01:04:41;;;;;;;2.90;1.50;;;;;;;-145.18;100.00;46730.72;4973772;28;20062;-69
2023/05/18 01:07:07;;;;;;;17.20;2.57;;;;;;;-145.18;100.00;46711.19;4973069;28;20039;-69
2023/05/18 01:09:33;;;;;;;7.17;2.03;;;;;;;-145.18;100.00;46730.72;4959137;28;20035;-69
2023/05/18 01:12:11;;;;;;;6.37;2.17;;;;;;;-145.18;100.00;46724.84;4954346;29;20396;-69
2023/05/18 01:14:41;;;;;;;11.30;2.20;;;;;;;-145.18;100.00;46728.75;4954516;29;20344;-69
2023/05/18 01:17:22;;;;;;;6.50;1.80;;;;;;;-145.18;100.00;46715.09;4954286;29;20286;-69
2023/05/18 01:19:50;;;;;;;11.07;1.97;;;;;;;-145.18;100.00;46719.00;4968413;28;20273;-69
2023/05/18 01:22:43;;;;;;;7.27;2.30;;;;;;;-145.18;100.00;46724.84;4972919;28;20280;-68
2023/05/18 01:25:28;;;;;;;5.20;1.70;;;;;;;-145.18;100.00;46719.00;4973755;28;20272;-69
2023/05/18 01:27:55;;;;;;;8.43;2.20;;;;;;;-145.18;100.00;46711.19;4970101;28;20273;-69
2023/05/18 01:30:21;;;;;;;9.20;2.27;;;;;;;-145.18;100.00;46707.28;4953975;29;20051;-69
2023/05/18 01:32:46;;;;;;;11.87;2.13;;;;;;;-145.18;100.00;46701.41;4953862;28;20667;-69
2023/05/18 01:35:12;;;;;;;5.83;1.87;;;;;;;-145.18;100.00;46695.56;4973106;28;20316;-69
2023/05/18 01:37:37;;;;;;;9.80;2.00;;;;;;;-145.18;100.00;46705.31;4972422;28;20510;-69
2023/05/18 01:40:05;;;;;;;11.77;2.33;;;;;;;-145.18;100.00;46695.56;4973401;28;20114;-69
2023/05/18 01:42:36;;;;;;;9.80;1.93;;;;;;;-145.18;100.00;46695.56;4972939;28;20026;-69
2023/05/18 01:45:08;;;;;;;13.27;2.33;;;;;;;-145.18;100.00;46695.56;4973284;28;20273;-69
2023/05/18 01:47:38;;;;;;;11.10;1.80;;;;;;;-145.18;100.00;46703.38;4969824;28;21002;-69
2023/05/18 01:50:13;;;;;;;7.03;2.00;;;;;;;-145.18;100.00;46705.31;4953961;29;20345;-69
2023/05/18 01:52:39;;;;;;;8.87;2.20;;;;;;;-145.18;100.00;46693.59;4953510;29;20274;-69
2023/05/18 01:55:07;;;;;;;5.60;2.57;;;;;;;-145.18;100.00;46701.41;4953747;29;20038;-69
2023/05/18 01:57:35;;;;;;;7.13;2.30;;;;;;;-145.18;100.00;46709.22;4955349;28;20109;-69
2023/05/18 02:00:03;;;;;;;9.80;2.27;;;;;;;-145.18;100.00;46701.41;4973092;28;20768;-69
2023/05/18 02:02:28;;;;;;;6.77;1.93;;;;;;;-145.18;100.00;46689.69;5265462;23;20670;-66
2023/05/18 02:04:53;;;;;;;8.07;2.03;;;;;;;-145.18;100.00;46693.59;4945044;28;20300;-68
2023/05/18 02:07:19;;;;;;;7.77;2.23;;;;;;;-145.18;100.00;46689.69;4949994;29;20036;-68
2023/05/18 02:09:45;;;;;;;5.57;2.07;;;;;;;-145.18;100.00;46677.97;4941650;29;20035;-69
2023/05/18 02:12:10;;;;;;;8.53;1.60;;;;;;;-145.18;100.00;46689.69;4953310;29;20554;-69
2023/05/18 02:14:36;;;;;;;10.17;2.43;;;;;;;-145.18;100.00;46691.66;4953592;29;20043;-68
2023/05/18 02:17:01;;;;;;;8.07;2.13;;;;;;;-145.18;100.00;46672.13;4953509;29;20111;-68
2023/05/18 02:19:29;;;;;;;18.37;2.20;;;;;;;-145.18;100.00;46691.66;4947230;28;20404;-68
2023/05/18 02:21:55;;;;;;;7.30;2.10;;;;;;;-145.18;100.00;46676.03;4933956;29;20115;-69
2023/05/18 02:24:21;;;;;;;10.53;2.70;;;;;;;-145.18;100.00;46676.03;4933953;29;20785;-68
2023/05/18 02:26:47;;;;;;;3.87;1.77;;;;;;;-145.18;100.00;46664.31;4933793;29;20536;-68
2023/05/18 03:20:31;;;;;;;10.70;2.30;;;;;;;-145.18;100.00;46635.00;4874569;27;20044;-81
2023/05/18 03:22:57;;;;;;;10.13;2.63;;;;;;;-145.18;100.00;46629.13;4949099;29;20039;-80
2023/05/18 06:13:19;;;;;;;8.25;2.97;;;;;;;-145.18;100.00;46586.16;5151472;27;20393;-83
2023/05/18 06:15:45;;;;;;;9.53;2.97;;;;;;;-145.18;100.00;46592.03;5151413;27;20035;-82
2023/05/18 06:25:29;;;;;;;7.30;3.33;;;;;;;-145.18;100.00;46601.78;5287075;22;20446;-82
2023/05/18 06:27:54;;;;;;;8.27;3.00;;;;;;;-145.18;100.00;46601.78;5079956;28;20457;-82
2023/05/18 06:30:19;;;;;;;21.07;8.53;;;;;;;-145.18;100.00;46609.59;5090400;28;20280;-82
2023/05/18 06:32:45;;;;;;;14.97;3.93;;;;;;;-145.18;100.00;46603.75;5089629;28;20360;-84
2023/05/18 07:21:08;;;;;;;9.82;2.67;;;;;;;-145.18;100.00;46801.03;5077477;28;20035;-78
2023/05/18 07:23:33;;;;;;;8.10;2.10;;;;;;;-145.18;100.00;46830.34;5076752;28;20045;-79
2023/05/18 07:25:58;;;;;;;12.67;2.87;;;;;;;-145.18;100.00;46906.53;5076465;28;20039;-79
2023/05/18 07:28:24;;;;;;;9.47;3.37;;;;;;;-145.18;100.00;46867.44;5073873;28;20481;-79
2023/05/18 07:52:36;;;;;;;10.18;2.60;;;;;;;-145.18;100.00;47437.91;5239559;23;20040;-79
2023/05/18 07:55:01;;;;;;;9.30;2.13;;;;;;;-145.18;100.00;47418.38;5013269;28;20450;-80
2023/05/18 07:57:28;;;;;;;9.43;2.73;;;;;;;-145.18;100.00;47414.47;5016738;28;20120;-80
2023/05/18 07:59:54;;;;;;;4.53;2.50;;;;;;;-145.18;100.00;47424.22;5054908;28;20056;-79
2023/05/18 08:02:19;;;;;;;9.43;2.47;;;;;;;-145.18;100.00;47406.63;5036994;28;20040;-79
2023/05/18 08:04:45;;;;;;;6.90;2.23;;;;;;;-145.18;100.00;47389.06;5054431;28;20111;-80
2023/05/18 08:07:11;;;;;;;11.13;2.37;;;;;;;-145.18;100.00;47394.91;5054887;28;20040;-79
2023/05/18 08:09:37;;;;;;;10.17;2.73;;;;;;;-145.18;100.00;47396.88;5055139;28;20036;-79
2023/05/18 08:12:03;;;;;;;9.70;2.70;;;;;;;-145.18;100.00;47385.16;5049965;28;20035;-79
2023/05/18 08:14:28;;;;;;;7.17;2.57;;;;;;;-145.18;100.00;47375.38;5054309;28;20036;-79
2023/05/18 08:16:54;;;;;;;5.60;2.37;;;;;;;-145.18;100.00;47381.25;5055003;28;20044;-80
2023/05/18 08:19:19;;;;;;;6.00;2.03;;;;;;;-145.18;100.00;47385.16;5054983;28;20072;-79
2023/05/18 08:21:45;;;;;;;7.73;3.27;;;;;;;-145.18;100.00;47357.78;5054368;28;20122;-80
2023/05/18 08:24:10;;;;;;;14.40;2.47;;;;;;;-145.18;100.00;47348.03;5052995;28;20040;-79
2023/05/18 08:26:36;;;;;;;6.60;2.50;;;;;;;-145.18;100.00;47371.47;5053360;28;20033;-80
2023/05/18 08:29:08;;;;;;;9.70;2.40;;;;;;;-145.18;100.00;47353.88;5050372;28;20044;-83
2023/05/18 08:31:34;;;;;;;7.43;2.27;;;;;;;-145.18;100.00;47334.34;5055000;28;20048;-82
2023/05/18 08:33:59;;;;;;;6.47;2.27;;;;;;;-145.18;100.00;47369.53;5037135;28;20041;-83
2023/05/18 08:36:25;;;;;;;8.27;2.53;;;;;;;-145.18;100.00;47332.41;5054724;28;20040;-82
2023/05/18 08:38:52;;;;;;;10.13;2.20;;;;;;;-145.18;100.00;47355.84;5054782;28;20123;-82
2023/05/18 08:41:27;;;;;;;5.73;1.77;;;;;;;-145.18;100.00;47340.22;5054543;28;20033;-82
2023/05/18 08:44:00;;;;;;;20.45;3.13;;;;;;;-145.18;100.00;47361.72;5036843;28;20135;-82
2023/05/18 08:46:39;;;;;;;8.83;2.30;;;;;;;-145.18;100.00;47363.66;5036598;28;20025;-82
2023/05/18 08:49:05;;;;;;;9.47;1.80;;;;;;;-145.18;100.00;47373.44;5036706;28;20033;-81
2023/05/18 08:51:35;;;;;;;7.80;2.23;;;;;;;-145.18;100.00;47367.56;5035889;28;20035;-82
2023/05/18 08:54:02;;;;;;;6.17;2.13;;;;;;;-145.18;100.00;47355.84;5014689;28;20333;-82
2023/05/18 08:56:31;;;;;;;10.23;2.00;;;;;;;-145.18;100.00;47349.97;5027150;28;20036;-82
2023/05/18 08:58:58;;;;;;;6.00;2.40;;;;;;;-145.18;100.00;47336.31;5034376;28;20025;-82
2023/05/18 09:01:30;;;;;;;7.13;2.20;;;;;;;-145.18;100.00;47348.03;5034377;28;20040;-82
2023/05/18 09:03:56;;;;;;;8.77;2.40;;;;;;;-145.18;100.00;47330.44;5034357;28;20040;-83
2023/05/18 09:06:27;;;;;;;7.27;2.47;;;;;;;-145.18;100.00;47342.16;5023131;28;20018;-83
2023/05/18 09:08:53;;;;;;;10.50;2.27;;;;;;;-145.18;100.00;47338.25;5032752;28;20115;-83
2023/05/18 09:11:20;;;;;;;10.07;2.27;;;;;;;-145.18;100.00;47348.03;5034063;28;20072;-82
2023/05/18 09:47:57;;;;;;;9.65;2.40;;;;;;;-145.18;100.00;47265.97;5682385;23;20427;-83
2023/05/18 09:51:25;;;;;;;5.30;2.30;;;;;;;-145.18;100.00;47258.16;5034573;28;20049;-87
2023/05/18 09:53:56;;;;;;;10.05;2.50;;;;;;;-145.18;100.00;47277.69;5029587;28;20045;-84
2023/05/18 09:56:27;;;;;;;4.57;1.53;;;;;;;-145.18;100.00;47324.59;5050384;28;20033;-84
2023/05/18 09:58:54;;;;;;;6.03;1.87;;;;;;;-145.18;100.00;47236.66;5050744;28;20144;-88
2023/05/18 10:01:19;;;;;;;5.30;1.90;;;;;;;-145.18;100.00;47246.44;5049628;28;20061;-88
2023/05/18 10:03:47;;;;;;;14.97;2.70;;;;;;;-145.18;100.00;47262.06;5024175;28;20103;-82
2023/05/18 10:06:13;;;;;;;7.00;2.40;;;;;;;-145.18;100.00;47295.28;5050083;28;20029;-82
2023/05/18 10:08:42;;;;;;;11.00;2.40;;;;;;;-145.18;100.00;47293.31;5051115;28;20123;-84
2023/05/18 10:11:08;;;;;;;7.90;2.20;;;;;;;-145.18;100.00;47262.06;5051447;28;20029;-83
2023/05/18 10:16:01;;;;;;;6.47;2.60;;;;;;;-145.18;100.00;47265.97;5081134;22;20057;-65
2023/05/18 10:18:28;;;;;;;6.17;2.17;;;;;;;-145.18;100.00;47250.34;5042959;28;20103;-65
2023/05/18 10:20:56;;;;;;;4.33;1.90;;;;;;;-145.18;100.00;47260.13;5038859;28;20037;-64
2023/05/18 10:23:23;;;;;;;8.87;2.30;;;;;;;-145.18;100.00;47254.25;5031945;28;20087;-64
2023/05/18 10:25:50;;;;;;;7.03;2.00;;;;;;;-145.18;100.00;47242.53;5031720;28;20711;-64
2023/05/18 10:28:24;;;;;;;8.47;2.27;;;;;;;-145.18;100.00;47223.00;5031819;28;20116;-64
2023/05/18 10:30:52;;;;;;;6.60;2.30;;;;;;;-145.18;100.00;47219.09;5028672;28;20037;-64
2023/05/18 10:33:18;;;;;;;5.67;1.93;;;;;;;-145.18;100.00;47211.28;5031547;28;20037;-64
2023/05/18 10:35:48;;;;;;;4.53;1.70;;;;;;;-145.18;100.00;47228.84;5032097;28;20098;-64
2023/05/18 10:38:17;;;;;;;7.97;2.60;;;;;;;-145.18;100.00;47232.75;5031617;28;20021;-64
2023/05/18 10:40:45;;;;;;;6.30;2.43;;;;;;;-145.18;100.00;47224.94;5038692;28;20525;-64
2023/05/18 10:43:12;;;;;;;7.33;2.50;;;;;;;-145.18;100.00;47211.28;5040647;28;20160;-64
2023/05/18 10:45:38;;;;;;;7.93;3.03;;;;;;;-145.18;100.00;47240.56;5020357;28;20060;-64
2023/05/18 10:48:04;;;;;;;13.83;2.57;;;;;;;-145.18;100.00;47201.50;5040971;28;20134;-64
2023/05/18 10:50:30;;;;;;;4.00;1.83;;;;;;;-145.18;100.00;47199.56;5039296;28;20033;-64
2023/05/18 10:52:59;;;;;;;8.33;2.33;;;;;;;-145.18;100.00;47201.50;5043780;28;20569;-65
2023/05/18 10:55:26;;;;;;;6.93;2.20;;;;;;;-145.18;100.00;47199.56;5044594;28;20144;-64
2023/05/18 10:57:57;;;;;;;7.17;2.40;;;;;;;-145.18;100.00;47185.88;5042786;28;20064;-65
2023/05/18 11:00:23;;;;;;;5.97;2.27;;;;;;;-145.18;100.00;47164.38;5044325;28;20033;-65
2023/05/18 11:02:50;;;;;;;8.60;2.10;;;;;;;-145.18;100.00;47176.09;5044716;28;20473;-64
2023/05/18 11:05:23;;;;;;;9.00;2.63;;;;;;;-145.18;100.00;47166.34;5043279;28;20029;-64
2023/05/18 11:07:48;;;;;;;7.10;2.60;;;;;;;-145.18;100.00;47178.06;5039550;28;20038;-64
2023/05/18 11:10:14;;;;;;;5.97;2.67;;;;;;;-145.18;100.00;47181.97;5016095;28;20041;-64
2023/05/18 11:12:40;;;;;;;12.77;3.23;;;;;;;-145.18;100.00;47180.03;5034974;28;20025;-64
2023/05/18 11:15:07;;;;;;;5.77;1.83;;;;;;;-145.18;100.00;47178.06;5043950;28;20405;-64
2023/05/18 11:17:33;;;;;;;5.50;2.40;;;;;;;-145.18;100.00;47166.34;5054125;28;20032;-64
2023/05/18 11:22:52;;;;;;;8.50;2.80;;;;;;;-145.18;100.00;47174.16;5054926;28;20041;-64
2023/05/18 11:25:26;;;;;;;7.13;2.20;;;;;;;-145.18;100.00;47189.78;5053273;28;20029;-64
2023/05/18 11:27:55;;;;;;;7.80;2.33;;;;;;;-145.18;100.00;47191.75;5034667;28;20037;-64
2023/05/18 11:30:43;;;;;;;8.47;2.27;;;;;;;-145.18;100.00;47164.38;5034696;28;20044;-63
2023/05/18 11:33:41;;;;;;;6.37;2.83;;;;;;;-145.18;100.00;47170.25;5035135;28;20196;-64
2023/05/18 11:36:14;;;;;;;5.83;2.10;;;;;;;-145.18;100.00;47176.09;5045410;28;20049;-64
2023/05/18 11:38:54;;;;;;;3.93;1.87;;;;;;;-145.18;100.00;47176.09;5042781;28;20028;-64
2023/05/18 11:41:32;;;;;;;7.40;2.27;;;;;;;-145.18;100.00;47168.28;5034316;28;20037;-64
2023/05/18 11:44:14;;;;;;;11.70;2.20;;;;;;;-145.18;100.00;47197.59;5034537;28;20034;-64
2023/05/18 11:46:50;;;;;;;8.67;2.53;;;;;;;-145.18;100.00;47164.38;5045834;28;20037;-64
2023/05/18 11:49:17;;;;;;;9.97;2.63;;;;;;;-145.18;100.00;47131.19;5054267;28;20039;-64
2023/05/18 11:52:11;;;;;;;7.93;2.43;;;;;;;-145.18;100.00;47133.13;5052519;28;20037;-64
2023/05/18 11:54:44;;;;;;;8.17;2.00;;;;;;;-145.18;100.00;47137.03;5038063;28;20037;-64
2023/05/18 11:57:10;;;;;;;6.27;2.20;;;;;;;-145.18;100.00;47125.31;5049915;28;20036;-64
2023/05/18 11:59:36;;;;;;;4.90;2.37;;;;;;;-145.18;100.00;47144.84;5053732;28;20401;-64
2023/05/18 12:02:03;;;;;;;5.77;3.07;;;;;;;-145.18;100.00;47139.00;5053913;28;20029;-64
2023/05/18 12:04:30;;;;;;;5.50;2.20;;;;;;;-145.18;100.00;47131.19;5054234;28;20032;-64
2023/05/18 12:06:56;;;;;;;10.43;2.47;;;;;;;-145.18;100.00;47125.31;5039497;28;20033;-64
2023/05/18 12:09:22;;;;;;;5.80;2.70;;;;;;;-145.18;100.00;47129.22;5034105;28;20037;-64
2023/05/18 12:11:49;;;;;;;9.93;2.80;;;;;;;-145.18;97.02;47113.59;5033629;28;20549;-65
2023/05/18 12:14:15;;;;;;;8.27;2.93;;;;;;;-145.18;100.00;47137.03;5051111;28;20032;-64
2023/05/18 12:16:41;;;;;;;9.67;2.53;;;;;;;-145.18;100.00;47135.09;5046070;28;20413;-64
2023/05/18 12:19:07;;;;;;;6.80;2.50;;;;;;;-145.18;100.00;47125.31;5042106;28;20044;-64
2023/05/18 12:21:35;;;;;;;5.97;3.10;;;;;;;-145.18;100.00;47129.22;5036280;28;20040;-65
2023/05/18 12:24:02;;;;;;;8.60;3.00;;;;;;;-145.18;100.00;47131.19;5026556;28;20040;-64
2023/05/18 12:26:29;;;;;;;7.40;2.67;;;;;;;-145.18;100.00;47109.69;5043049;28;20045;-64
2023/05/18 12:28:55;;;;;;;14.83;2.97;;;;;;;-145.18;100.00;47119.47;5053408;28;20059;-64
2023/05/18 12:31:21;;;;;;;10.27;2.37;;;;;;;-145.18;99.33;47121.41;5053552;28;20060;-64
2023/05/18 12:33:47;;;;;;;8.77;2.57;;;;;;;-145.18;100.00;47094.06;5039428;28;20040;-64
2023/05/18 12:36:13;;;;;;;5.07;2.67;;;;;;;-145.18;100.00;47097.97;5033255;28;20042;-64
2023/05/18 12:38:39;;;;;;;8.83;3.00;;;;;;;-145.18;99.65;47103.81;5032942;28;20041;-64
2023/05/18 12:41:05;;;;;;;9.27;2.90;;;;;;;-145.18;96.39;47082.34;5032833;28;20478;-64
2023/05/18 12:43:35;;;;;;;5.17;2.73;;;;;;;-145.18;86.99;47088.19;5024382;28;20029;-64
2023/05/18 12:46:02;;;;;;;6.77;2.60;;;;;;;-145.18;99.58;47084.28;5047703;28;20040;-64
2023/05/18 12:48:35;;;;;;;7.07;2.37;;;;;;;-145.18;90.96;47074.53;5037228;28;20060;-64
2023/05/18 12:51:01;;;;;;;8.40;2.93;;;;;;;-145.18;100.00;47090.16;5053309;28;20025;-64
2023/05/18 12:53:26;;;;;;;6.00;2.53;;;;;;;-145.18;100.00;47113.59;5034767;28;20098;-64
2023/05/18 12:55:57;;;;;;;6.37;2.87;;;;;;;-145.18;100.00;47115.56;5030866;28;20528;-64
2023/05/18 12:58:22;;;;;;;7.67;3.10;;;;;;;-145.18;88.69;47078.44;5032937;28;20036;-64
2023/05/18 13:00:48;;;;;;;6.53;2.80;;;;;;;-145.18;100.00;47121.41;5029697;28;20033;-64
2023/05/18 13:03:16;;;;;;;8.53;2.73;;;;;;;-145.18;99.56;47092.09;5052683;28;20095;-63
2023/05/18 13:05:44;;;;;;;4.30;2.60;;;;;;;-145.18;100.00;47094.06;5050529;28;20040;-64
2023/05/18 13:08:20;;;;;;;6.90;2.47;;;;;;;-145.18;91.54;47080.38;5032970;28;20413;-64
2023/05/18 13:10:46;;;;;;;7.80;3.20;;;;;;;-145.18;100.00;47103.81;5032511;28;20427;-64
2023/05/18 13:13:15;;;;;;;8.73;2.90;;;;;;;-145.18;99.21;47096.00;5033143;28;20056;-64
2023/05/18 13:15:41;;;;;;;4.47;2.50;;;;;;;-145.18;91.09;47080.38;5033692;28;20640;-64
2023/05/18 13:18:11;;;;;;;7.00;2.50;;;;;;;-145.18;93.79;47096.00;5052529;28;20083;-64
2023/05/18 13:20:44;;;;;;;8.87;3.30;;;;;;;-145.18;95.45;47097.97;5052484;28;20059;-64
2023/05/18 13:23:15;;;;;;;4.97;2.30;;;;;;;-145.18;96.86;47121.41;5042875;28;20074;-64
2023/05/18 13:25:41;;;;;;;6.33;2.63;;;;;;;-145.18;91.05;47137.03;5041326;28;20029;-64
2023/05/18 13:28:09;;;;;;;6.47;2.20;;;;;;;-145.18;89.96;47125.31;5041215;28;20025;-64
2023/05/18 13:30:35;;;;;;;5.93;2.10;;;;;;;-145.18;92.97;47109.69;5041296;28;20096;-64
2023/05/18 13:33:00;;;;;;;9.80;3.20;;;;;;;-145.18;94.96;47127.28;5040920;28;20179;-64
2023/05/18 13:35:26;;;;;;;9.40;3.73;;;;;;;-145.18;91.54;47137.03;5043006;28;20033;-64
2023/05/18 13:37:52;;;;;;;8.97;2.80;;;;;;;-145.18;96.58;47135.09;5041799;28;20029;-64
2023/05/18 13:40:19;;;;;;;7.53;2.77;;;;;;;-145.18;100.00;47119.47;5047048;28;20028;-64
2023/05/18 13:42:45;;;;;;;11.27;2.97;;;;;;;-145.18;94.65;47115.56;5051071;28;20028;-64
2023/05/18 13:45:11;;;;;;;6.50;2.50;;;;;;;-145.18;89.00;47107.72;5037490;28;20033;-64
2023/05/18 13:47:37;;;;;;;5.40;2.97;;;;;;;-145.18;89.11;47135.09;5014791;28;20040;-64
2023/05/18 13:50:07;;;;;;;9.87;2.77;;;;;;;-145.18;86.74;47127.28;5031696;28;20068;-64
2023/05/18 13:52:34;;;;;;;10.77;3.07;;;;;;;-145.18;87.10;47123.38;5032283;28;20109;-63
2023/05/18 13:55:01;;;;;;;7.43;3.00;;;;;;;-145.18;97.36;47144.84;5043708;28;20033;-63
2023/05/18 13:57:26;;;;;;;10.03;3.07;;;;;;;-145.18;100.00;47109.69;5051852;28;20091;-63
2023/05/18 13:59:52;;;;;;;11.97;2.90;;;;;;;-145.18;87.03;47127.28;5051606;28;20045;-64
2023/05/18 14:02:18;;;;;;;8.73;2.50;;;;;;;-145.18;88.13;47150.72;5051730;28;20033;-63
2023/05/18 14:04:43;;;;;;;7.43;3.33;;;;;;;-145.18;93.57;47129.22;5024559;28;20442;-64
2023/05/18 14:07:09;;;;;;;5.93;2.50;;;;;;;-145.18;98.01;47119.47;5024730;28;20116;-63
2023/05/18 14:09:35;;;;;;;7.07;3.37;;;;;;;-145.18;90.42;47121.41;5034161;28;20055;-64
2023/05/18 14:12:00;;;;;;;7.97;3.37;;;;;;;-145.18;89.37;47139.00;5049221;28;20035;-64
2023/05/18 14:14:26;;;;;;;7.57;3.20;;;;;;;-145.18;91.34;47129.22;5031989;28;20036;-64
2023/05/18 14:16:52;;;;;;;4.73;2.50;;;;;;;-145.18;100.00;47109.69;5031384;28;20122;-63
2023/05/18 14:19:17;;;;;;;6.97;2.87;;;;;;;-145.18;93.31;47119.47;5031787;28;20030;-64
2023/05/18 14:21:43;;;;;;;7.63;2.63;;;;;;;-145.18;90.00;47113.59;5013822;28;20087;-64
2023/05/18 14:24:09;;;;;;;7.60;3.27;;;;;;;-145.18;85.13;47109.69;5036696;28;20044;-64
2023/05/18 14:26:35;;;;;;;9.37;2.50;;;;;;;-145.18;90.43;47121.41;5045191;28;20056;-64
2023/05/18 14:29:01;;;;;;;5.80;2.73;;;;;;;-145.18;90.28;47129.22;5044772;28;20600;-64
2023/05/18 14:31:28;;;;;;;6.90;3.10;;;;;;;-145.18;80.68;47133.13;5043423;28;20037;-63
2023/05/18 14:33:53;;;;;;;8.30;2.60;;;;;;;-145.18;80.88;47115.56;5043295;28;20033;-64
2023/05/18 14:36:19;;;;;;;11.17;3.33;;;;;;;-145.18;86.62;47123.38;5043065;28;20116;-64
2023/05/18 14:38:45;;;;;;;6.60;2.80;;;;;;;-145.18;89.43;47103.81;5045456;28;20040;-64
2023/05/18 14:41:11;;;;;;;7.33;2.40;;;;;;;-145.18;79.95;47115.56;5023167;28;20047;-64
2023/05/18 14:43:36;;;;;;;7.73;2.53;;;;;;;-145.18;79.44;47119.47;5042260;28;20236;-64
2023/05/18 14:46:02;;;;;;;4.83;2.50;;;;;;;-145.18;85.28;47117.50;5025917;28;20029;-64
2023/05/18 14:48:28;;;;;;;4.33;2.63;;;;;;;-145.18;78.06;47072.56;5044520;28;20029;-64
2023/05/18 14:50:53;;;;;;;6.87;2.30;;;;;;;-145.18;73.56;47060.84;5043146;28;20029;-64
2023/05/18 14:53:18;;;;;;;6.37;2.57;;;;;;;-145.18;69.50;47094.06;5056341;28;20397;-64
2023/05/18 14:55:44;;;;;;;5.27;2.50;;;;;;;-145.18;72.05;47117.50;5027686;28;20036;-63
2023/05/18 14:58:13;;;;;;;5.23;2.40;;;;;;;-145.18;78.71;47107.72;5040500;28;20028;-64
2023/05/18 15:00:42;;;;;;;6.83;2.50;;;;;;;-145.18;85.23;47129.22;5035469;28;20041;-64
2023/05/18 15:03:07;;;;;;;8.50;2.80;;;;;;;-145.18;77.86;47123.38;5045170;28;20033;-64
2023/05/18 15:05:33;;;;;;;7.17;2.37;;;;;;;-145.18;81.54;47109.69;5025436;28;20044;-64
2023/05/18 15:07:59;;;;;;;4.27;2.10;;;;;;;-145.18;75.34;47084.28;5045455;28;20453;-64
2023/05/18 15:10:25;;;;;;;4.20;2.00;;;;;;;-145.18;74.88;47084.28;5044468;28;20441;-64
2023/05/18 15:12:50;;;;;;;6.73;2.60;;;;;;;-145.18;72.21;47090.16;5042076;28;20029;-63
2023/05/18 15:15:16;;;;;;;4.90;2.63;;;;;;;-145.18;70.39;47078.44;5034269;28;20034;-64
2023/05/18 15:17:41;;;;;;;5.50;2.40;;;;;;;-145.18;67.98;47094.06;5035244;28;20052;-64
2023/05/18 15:20:08;;;;;;;4.07;2.30;;;;;;;-145.18;70.43;47084.28;5034951;28;20092;-64
2023/05/18 15:22:34;;;;;;;6.57;2.53;;;;;;;-145.18;70.65;47064.75;5034882;28;20038;-63
2023/05/18 15:25:06;;;;;;;4.60;2.40;;;;;;;-145.18;65.03;47037.41;5034507;28;20029;-64
2023/05/18 15:27:33;;;;;;;6.30;2.40;;;;;;;-145.18;67.15;47037.41;5048656;28;20036;-64
2023/05/18 15:29:59;;;;;;;5.13;2.37;;;;;;;-145.18;65.66;47027.63;5054219;28;20037;-63
2023/05/18 15:32:25;;;;;;;5.47;2.70;;;;;;;-145.18;65.66;47021.78;5054019;28;20032;-63
2023/05/18 15:34:51;;;;;;;9.60;3.50;;;;;;;-145.18;59.65;46982.72;5053693;28;20120;-64
2023/05/18 15:37:17;;;;;;;7.93;2.63;;;;;;;-145.18;53.98;46967.09;5053815;28;20029;-64
2023/05/18 15:39:42;;;;;;;7.50;2.50;;;;;;;-145.18;51.32;46965.13;5054474;28;20021;-64
2023/05/18 15:42:08;;;;;;;4.53;2.20;;;;;;;-145.18;51.70;46986.63;5053720;28;20072;-64
2023/05/18 15:44:33;;;;;;;3.33;2.40;;;;;;;-145.18;49.51;47004.19;5035072;28;20037;-64
2023/05/18 15:47:00;;;;;;;7.47;2.20;;;;;;;-145.18;51.69;46976.84;5043601;28;20033;-64
2023/05/18 15:49:25;;;;;;;4.20;2.53;;;;;;;-145.18;49.40;46957.31;5053472;28;20470;-64
2023/05/18 15:51:51;;;;;;;6.97;2.77;;;;;;;-145.18;44.29;46929.97;5054113;28;20040;-64
2023/05/18 15:54:16;;;;;;;6.43;2.80;;;;;;;-145.18;43.74;46947.53;5035473;28;20037;-64
2023/05/18 15:56:42;;;;;;;4.73;2.77;;;;;;;-145.18;44.64;46969.03;5042221;28;20171;-64
2023/05/18 15:59:07;;;;;;;6.57;2.43;;;;;;;-145.18;43.62;46947.53;5034252;28;20508;-63
2023/05/18 16:01:33;;;;;;;5.47;2.73;;;;;;;-145.18;44.29;46967.09;5036968;28;20025;-63
2023/05/18 16:03:59;;;;;;;4.37;2.53;;;;;;;-145.18;45.91;46951.44;5043616;28;20045;-64
2023/05/18 16:06:24;;;;;;;5.37;2.43;;;;;;;-145.18;42.95;46957.31;5042279;28;20025;-63
2023/05/18 16:08:50;;;;;;;6.13;2.30;;;;;;;-145.18;42.11;46961.22;5054044;28;20405;-64
2023/05/18 16:11:15;;;;;;;4.00;2.23;;;;;;;-145.18;42.51;46978.81;4990766;28;20025;-64
2023/05/18 16:13:41;;;;;;;5.97;2.40;;;;;;;-145.18;42.31;47000.28;5012547;28;20516;-63
2023/05/18 16:16:08;;;;;;;5.60;2.27;;;;;;;-145.18;43.48;46998.34;5052553;28;20131;-63
2023/05/18 16:18:37;;;;;;;4.63;2.20;;;;;;;-145.18;43.61;47008.09;5053626;28;20033;-63
2023/05/18 16:21:02;;;;;;;4.57;2.83;;;;;;;-145.18;44.64;46984.66;5053816;28;20052;-64
2023/05/18 16:23:28;;;;;;;5.30;2.43;;;;;;;-145.18;42.74;46982.72;5052082;28;20780;-64
2023/05/18 16:25:53;;;;;;;5.07;2.27;;;;;;;-145.18;42.30;46982.72;5040900;28;20043;-64
2023/05/18 16:28:18;;;;;;;8.03;2.40;;;;;;;-145.18;41.26;47008.09;5053421;28;20041;-64
2023/05/18 16:30:44;;;;;;;6.97;2.20;;;;;;;-145.18;42.50;47006.16;5053694;28;20079;-64
2023/05/18 16:33:09;;;;;;;3.50;2.00;;;;;;;-145.18;43.21;46998.34;5053561;28;20386;-64
2023/05/18 16:35:35;;;;;;;5.10;2.73;;;;;;;-145.18;45.58;47025.69;5052041;28;20409;-64
2023/05/18 16:38:01;;;;;;;6.83;2.30;;;;;;;-145.18;51.00;47074.53;5033260;28;20061;-63
2023/05/18 16:40:26;;;;;;;6.10;2.43;;;;;;;-145.18;59.52;47115.56;5033632;28;20025;-63
2023/05/18 16:42:52;;;;;;;6.40;2.10;;;;;;;-145.18;64.71;47148.75;5033013;28;20093;-63
2023/05/18 16:45:17;;;;;;;4.97;2.07;;;;;;;-145.18;71.38;47142.91;5037846;28;20034;-64
2023/05/18 16:47:43;;;;;;;8.00;2.70;;;;;;;-145.18;69.58;47154.63;5015758;28;20553;-64